Time;durP1;ratioP1;P1;durP2;ratioP2;P2;SDS_P1;SDS_P2;PMS_P1;PMS_P2;Temp;Humidity;BMP_temperature;BMP_pressure;BME280_temperature;BME280_humidity;BME280_pressure;Samples;Min_cycle;Max_cycle;Signal;HPM_P1;HPM_P2
2021/08/12 00:00:06;;;;;;;;;;;;;;;-142.75;67.59;77066.38;5055747;28;20000;-77
2021/08/12 00:02:31;;;;;;;;;;;;;;;-142.75;67.75;77066.38;5060798;28;19956;-77
2021/08/12 00:04:56;;;;;;;;;;;;;;;-142.75;68.16;77078.19;5063979;28;19960;-77
2021/08/12 00:07:21;;;;;;;;;;;;;;;-142.75;68.42;77080.16;5059050;28;20369;-76
2021/08/12 00:09:47;;;;;;;;;;;;;;;-142.75;68.58;77091.97;5059307;28;19917;-79
2021/08/12 00:12:12;;;;;;;;;;;;;;;-142.75;68.78;77099.84;5056373;28;20034;-77
2021/08/12 00:14:38;;;;;;;;;;;;;;;-142.75;69.61;77095.91;5063106;28;19916;-77
2021/08/12 00:17:04;;;;;;;;;;;;;;;-142.75;70.73;77097.88;5063323;28;20388;-76
2021/08/12 00:19:29;;;;;;;;;;;;;;;-142.75;71.12;77090.00;5052503;28;19924;-78
2021/08/12 00:21:54;;;;;;;;;;;;;;;-142.75;71.39;77074.25;5058853;28;19927;-77
2021/08/12 00:24:21;;;;;;;;;;;;;;;-142.75;71.34;77068.34;5062429;28;19962;-78
2021/08/12 00:26:48;;;;;;;;;;;;;;;-142.75;71.35;77054.56;5067814;28;19962;-77
2021/08/12 00:29:13;;;;;;;;;;;;;;;-142.75;70.73;77056.53;5060496;28;19923;-77
2021/08/12 00:31:38;;;;;;;;;;;;;;;-142.75;69.87;77038.81;5057013;28;19916;-78
2021/08/12 00:34:03;;;;;;;;;;;;;;;-142.75;68.91;77034.88;5062963;28;19974;-77
2021/08/12 00:36:28;;;;;;;;;;;;;;;-142.75;68.27;77027.00;5068551;28;19926;-77
2021/08/12 00:38:54;;;;;;;;;;;;;;;-142.75;67.63;77017.16;5065548;28;20011;-77
2021/08/12 00:41:19;;;;;;;;;;;;;;;-142.75;67.35;77009.28;5069776;28;19917;-78
2021/08/12 00:43:44;;;;;;;;;;;;;;;-142.75;66.95;77015.19;5060849;28;19916;-77
2021/08/12 00:46:09;;;;;;;;;;;;;;;-142.75;66.92;77013.22;5063226;28;19932;-77
2021/08/12 00:48:34;;;;;;;;;;;;;;;-142.75;66.93;76997.47;5068309;28;19955;-77
2021/08/12 00:51:00;;;;;;;;;;;;;;;-142.75;69.49;76995.50;5063513;28;20396;-77
2021/08/12 00:53:25;;;;;;;;;;;;;;;-142.75;71.77;76999.44;5065085;28;20365;-77
2021/08/12 00:55:50;;;;;;;;;;;;;;;-142.75;72.39;76995.50;5064781;28;19921;-77
2021/08/12 00:58:16;;;;;;;;;;;;;;;-142.75;73.08;76985.66;5059766;28;20301;-76
2021/08/12 01:00:41;;;;;;;;;;;;;;;-142.75;72.97;76979.75;5060723;28;19932;-77
2021/08/12 01:03:10;;;;;;;;;;;;;;;-142.75;72.74;76973.84;5061976;28;20414;-77
2021/08/12 01:05:37;;;;;;;;;;;;;;;-142.75;73.26;77003.38;5056892;28;20305;-77
2021/08/12 01:08:06;;;;;;;;;;;;;;;-142.75;73.21;76991.56;5060312;28;19923;-77
2021/08/12 01:10:42;;;;;;;;;;;;;;;-142.75;72.90;76977.78;5062382;28;19997;-77
2021/08/12 01:13:13;;;;;;;;;;;;;;;-142.75;72.85;76979.75;5059693;28;19970;-78
2021/08/12 01:15:40;;;;;;;;;;;;;;;-142.75;72.97;76983.69;5062436;28;20031;-78
2021/08/12 01:18:11;;;;;;;;;;;;;;;-142.75;72.93;76979.75;5071627;28;20033;-77
2021/08/12 01:20:46;;;;;;;;;;;;;;;-142.75;72.61;76993.53;5059906;28;20459;-76
2021/08/12 01:23:12;;;;;;;;;;;;;;;-142.75;72.39;76999.44;5064975;28;19946;-77
2021/08/12 01:25:39;;;;;;;;;;;;;;;-142.75;71.77;77019.13;5069167;28;19920;-79
2021/08/12 01:28:08;;;;;;;;;;;;;;;-142.75;71.56;77003.38;5057536;28;19917;-77
2021/08/12 01:30:42;;;;;;;;;;;;;;;-142.75;72.15;77017.16;5061574;28;19916;-77
2021/08/12 01:33:19;;;;;;;;;;;;;;;-142.75;72.68;76993.53;5056250;28;19923;-77
2021/08/12 01:35:45;;;;;;;;;;;;;;;-142.75;72.68;77019.13;5064200;28;20003;-78
2021/08/12 01:38:13;;;;;;;;;;;;;;;-142.75;72.64;77015.19;5063596;28;21196;-78
2021/08/12 01:40:39;;;;;;;;;;;;;;;-142.75;72.67;77023.06;5058578;28;19916;-77
2021/08/12 01:43:08;;;;;;;;;;;;;;;-142.75;72.39;77013.22;5060886;28;19928;-78
2021/08/12 01:45:33;;;;;;;;;;;;;;;-142.75;72.15;77015.19;5062367;28;19938;-80
2021/08/12 01:47:59;;;;;;;;;;;;;;;-142.75;72.33;77023.06;5062606;28;19947;-78
2021/08/12 01:50:25;;;;;;;;;;;;;;;-142.75;72.91;77028.97;5060481;28;19932;-78
2021/08/12 01:52:51;;;;;;;;;;;;;;;-142.75;73.74;77030.94;5064307;28;19916;-77
2021/08/12 01:55:18;;;;;;;;;;;;;;;-142.75;73.89;77013.22;5064713;28;20293;-77
2021/08/12 01:57:45;;;;;;;;;;;;;;;-142.75;73.74;77027.00;5063222;28;20054;-77
2021/08/12 02:00:11;;;;;;;;;;;;;;;-142.75;73.37;77034.88;5066080;28;19917;-77
2021/08/12 02:02:37;;;;;;;;;;;;;;;-142.75;72.99;77028.97;5059985;28;20424;-77
2021/08/12 02:05:03;;;;;;;;;;;;;;;-142.75;73.92;77042.75;5056007;28;19924;-76
2021/08/12 02:07:28;;;;;;;;;;;;;;;-142.75;75.11;77054.56;5059971;28;19917;-77
2021/08/12 02:09:55;;;;;;;;;;;;;;;-142.75;75.85;77044.72;5060607;28;19922;-77
2021/08/12 02:12:20;;;;;;;;;;;;;;;-142.75;76.06;77030.94;5063888;28;19978;-78
2021/08/12 02:14:45;;;;;;;;;;;;;;;-142.75;76.15;77030.94;5064444;28;20374;-77
2021/08/12 02:17:10;;;;;;;;;;;;;;;-142.75;76.21;77040.78;5061233;28;19917;-77
2021/08/12 02:19:35;;;;;;;;;;;;;;;-142.75;76.32;77034.88;5056834;28;19916;-78
2021/08/12 02:22:12;;;;;;;;;;;;;;;-142.75;75.95;77013.22;5061744;28;20275;-77
2021/08/12 02:24:42;;;;;;;;;;;;;;;-142.75;75.39;76991.56;5064480;28;19927;-77
2021/08/12 02:27:17;;;;;;;;;;;;;;;-142.75;74.67;76991.56;5063935;28;19931;-77
2021/08/12 02:29:43;;;;;;;;;;;;;;;-142.75;74.37;76979.75;5064678;28;20023;-77
2021/08/12 02:32:09;;;;;;;;;;;;;;;-142.75;74.86;76993.53;5063754;28;19999;-77
2021/08/12 02:34:35;;;;;;;;;;;;;;;-142.75;74.74;76997.47;5061126;28;19955;-78
2021/08/12 02:37:02;;;;;;;;;;;;;;;-142.75;74.44;76983.69;5057902;28;20413;-77
2021/08/12 02:39:29;;;;;;;;;;;;;;;-142.75;73.90;76967.94;5055107;28;19999;-77
2021/08/12 02:41:55;;;;;;;;;;;;;;;-142.75;74.14;76983.69;5053271;28;19970;-77
2021/08/12 02:44:20;;;;;;;;;;;;;;;-142.75;73.95;76979.75;5055383;28;19916;-77
2021/08/12 02:46:46;;;;;;;;;;;;;;;-142.75;73.54;76981.72;5052573;28;20413;-78
2021/08/12 02:49:13;;;;;;;;;;;;;;;-142.75;73.06;76991.56;5066237;28;19917;-78
2021/08/12 02:51:38;;;;;;;;;;;;;;;-142.75;72.61;76995.50;5056064;28;19942;-77
2021/08/12 02:54:05;;;;;;;;;;;;;;;-142.75;72.36;77023.06;5060119;28;20011;-77
2021/08/12 02:56:31;;;;;;;;;;;;;;;-142.75;72.26;77030.94;5057996;28;19924;-78
2021/08/12 02:58:57;;;;;;;;;;;;;;;-142.75;72.05;77027.00;5056106;28;19921;-78
2021/08/12 03:01:24;;;;;;;;;;;;;;;-142.75;71.97;77030.94;5059915;28;20362;-78
2021/08/12 03:03:50;;;;;;;;;;;;;;;-142.75;71.74;77021.09;5054527;28;20007;-77
2021/08/12 03:06:17;;;;;;;;;;;;;;;-142.75;71.71;77027.00;5062865;28;19923;-78
2021/08/12 03:08:44;;;;;;;;;;;;;;;-142.75;71.96;77028.97;5056988;28;19924;-77
2021/08/12 03:11:09;;;;;;;;;;;;;;;-142.75;71.59;77027.00;5058610;28;20398;-76
2021/08/12 03:13:35;;;;;;;;;;;;;;;-142.75;71.84;77021.09;5062603;28;19967;-77
2021/08/12 03:16:01;;;;;;;;;;;;;;;-142.75;71.80;77028.97;5067245;28;19916;-77
2021/08/12 03:18:26;;;;;;;;;;;;;;;-142.75;71.97;77038.81;5064523;28;19931;-78
2021/08/12 03:20:51;;;;;;;;;;;;;;;-142.75;71.87;77030.94;5062337;28;19924;-76
2021/08/12 03:23:17;;;;;;;;;;;;;;;-142.75;71.77;77030.94;5058457;28;19978;-77
2021/08/12 03:25:42;;;;;;;;;;;;;;;-142.75;71.83;77042.75;5061244;28;19923;-77
2021/08/12 03:28:07;;;;;;;;;;;;;;;-142.75;71.81;77019.13;5061413;28;19925;-77
2021/08/12 03:30:32;;;;;;;;;;;;;;;-142.75;71.84;77038.81;5055511;28;19917;-77
2021/08/12 03:32:58;;;;;;;;;;;;;;;-142.75;71.85;77030.94;5054156;28;19969;-77
2021/08/12 03:35:23;;;;;;;;;;;;;;;-142.75;72.09;77038.81;5062182;28;19924;-77
2021/08/12 03:37:48;;;;;;;;;;;;;;;-142.75;71.81;77013.22;5067215;28;20015;-77
2021/08/12 03:40:13;;;;;;;;;;;;;;;-142.75;71.70;77036.84;5053996;28;19916;-76
2021/08/12 03:42:38;;;;;;;;;;;;;;;-142.75;71.69;77034.88;5049144;28;19920;-77
2021/08/12 03:45:04;;;;;;;;;;;;;;;-142.75;71.68;77027.00;5060082;28;20383;-77
2021/08/12 03:47:31;;;;;;;;;;;;;;;-142.75;71.91;77034.88;5062592;28;21176;-77
2021/08/12 03:49:56;;;;;;;;;;;;;;;-142.75;72.15;77046.69;5053471;28;19999;-77
2021/08/12 03:52:22;;;;;;;;;;;;;;;-142.75;72.48;77038.81;5058320;28;19917;-77
2021/08/12 03:54:47;;;;;;;;;;;;;;;-142.75;72.85;77042.75;5064020;28;19921;-76
2021/08/12 03:57:12;;;;;;;;;;;;;;;-142.75;73.16;77040.78;5058580;28;20003;-77
2021/08/12 03:59:37;;;;;;;;;;;;;;;-142.75;73.48;77028.97;5063002;28;19920;-78
2021/08/12 04:02:03;;;;;;;;;;;;;;;-142.75;73.62;77034.88;5064339;28;20370;-78
2021/08/12 04:04:28;;;;;;;;;;;;;;;-142.75;73.70;77036.84;5056087;28;19917;-77
2021/08/12 04:06:53;;;;;;;;;;;;;;;-142.75;73.75;77042.75;5058071;28;20325;-77
2021/08/12 04:09:18;;;;;;;;;;;;;;;-142.75;73.67;77032.91;5059457;28;19916;-76
2021/08/12 04:11:44;;;;;;;;;;;;;;;-142.75;73.86;77038.81;5055224;28;19916;-77
2021/08/12 04:14:09;;;;;;;;;;;;;;;-142.75;73.91;77038.81;5069064;28;19917;-78
2021/08/12 04:16:35;;;;;;;;;;;;;;;-142.75;73.88;77034.88;5063897;28;19966;-77
2021/08/12 04:19:00;;;;;;;;;;;;;;;-142.75;73.94;77038.81;5071900;28;19973;-77
2021/08/12 04:21:25;;;;;;;;;;;;;;;-142.75;73.95;77036.84;5063342;28;20286;-78
2021/08/12 04:23:50;;;;;;;;;;;;;;;-142.75;73.91;77034.88;5064117;28;20046;-77
2021/08/12 04:26:15;;;;;;;;;;;;;;;-142.75;74.03;77034.88;5064766;28;19951;-77
2021/08/12 04:28:40;;;;;;;;;;;;;;;-142.75;74.00;77032.91;5067812;28;19922;-78
2021/08/12 04:31:06;;;;;;;;;;;;;;;-142.75;73.93;77032.91;5058803;28;19917;-77
2021/08/12 04:33:31;;;;;;;;;;;;;;;-142.75;74.07;77023.06;5064948;28;19970;-78
2021/08/12 04:35:57;;;;;;;;;;;;;;;-142.75;74.11;77030.94;5064511;28;20303;-78
2021/08/12 04:38:22;;;;;;;;;;;;;;;-142.75;74.20;77027.00;5057086;28;20414;-77
2021/08/12 04:40:48;;;;;;;;;;;;;;;-142.75;74.14;77038.81;5068933;28;20356;-77
2021/08/12 04:43:13;;;;;;;;;;;;;;;-142.75;73.96;77030.94;5063067;28;19920;-76
2021/08/12 04:45:38;;;;;;;;;;;;;;;-142.75;73.93;77038.81;5064412;28;19916;-76
2021/08/12 04:48:04;;;;;;;;;;;;;;;-142.75;74.20;77042.75;5059670;28;20267;-77
2021/08/12 04:50:30;;;;;;;;;;;;;;;-142.75;74.49;77027.00;5064809;28;19962;-77
2021/08/12 04:52:55;;;;;;;;;;;;;;;-142.75;74.85;77027.00;5064561;28;20519;-77
2021/08/12 04:55:20;;;;;;;;;;;;;;;-142.75;75.09;77036.84;5062424;28;20386;-77
2021/08/12 04:57:45;;;;;;;;;;;;;;;-142.75;75.21;77003.38;5065935;28;19928;-77
2021/08/12 05:00:11;;;;;;;;;;;;;;;-142.75;75.21;77015.19;5063018;28;20383;-77
2021/08/12 05:02:36;;;;;;;;;;;;;;;-142.75;75.25;77003.38;5059214;28;19921;-77
2021/08/12 05:05:01;;;;;;;;;;;;;;;-142.75;75.15;77007.31;5065095;28;19916;-76
2021/08/12 05:07:27;;;;;;;;;;;;;;;-142.75;74.91;76991.56;5057462;28;19928;-76
2021/08/12 05:09:52;;;;;;;;;;;;;;;-142.75;74.66;76993.53;5069321;28;19916;-77
2021/08/12 05:12:18;;;;;;;;;;;;;;;-142.75;74.69;76987.63;5082801;22;19928;-76
2021/08/12 05:14:43;;;;;;;;;;;;;;;-142.75;74.78;76985.66;5091334;28;19970;-74
2021/08/12 05:17:08;;;;;;;;;;;;;;;-142.75;74.81;76965.97;5083478;28;19951;-76
2021/08/12 05:19:34;;;;;;;;;;;;;;;-142.75;74.59;76948.25;5073288;28;20362;-76
2021/08/12 05:21:59;;;;;;;;;;;;;;;-142.75;74.29;76944.31;5091834;28;19920;-75
2021/08/12 05:24:24;;;;;;;;;;;;;;;-142.75;74.10;76936.44;5086304;28;19962;-74
2021/08/12 05:26:49;;;;;;;;;;;;;;;-142.75;73.71;76918.72;5084527;28;19916;-75
2021/08/12 05:29:14;;;;;;;;;;;;;;;-142.75;73.51;76899.03;5078477;28;20015;-75
2021/08/12 05:31:39;;;;;;;;;;;;;;;-142.75;73.13;76897.06;5086142;28;19953;-75
2021/08/12 05:34:05;;;;;;;;;;;;;;;-142.75;72.66;76883.28;5083161;28;19923;-75
2021/08/12 05:36:30;;;;;;;;;;;;;;;-142.75;72.34;76881.31;5071751;28;19952;-75
2021/08/12 05:38:57;;;;;;;;;;;;;;;-142.75;72.05;76857.69;5071681;28;20385;-75
2021/08/12 05:41:23;;;;;;;;;;;;;;;-142.75;71.74;76838.00;5081148;28;19980;-76
2021/08/12 05:43:48;;;;;;;;;;;;;;;-142.75;71.25;76818.31;5082234;28;19916;-76
2021/08/12 05:46:13;;;;;;;;;;;;;;;-142.75;70.70;76798.66;5071272;28;20270;-76
2021/08/12 05:48:38;;;;;;;;;;;;;;;-142.75;70.35;76763.22;5073689;28;19932;-75
2021/08/12 05:51:03;;;;;;;;;;;;;;;-142.75;69.32;76739.59;5075446;28;20396;-74
2021/08/12 05:53:30;;;;;;;;;;;;;;;-142.75;68.27;76708.09;5084159;28;19916;-75
2021/08/12 05:55:55;;;;;;;;;;;;;;;-142.75;66.94;76700.22;5071469;28;20267;-75
2021/08/12 05:58:20;;;;;;;;;;;;;;;-142.75;66.35;76708.09;5071290;28;19958;-76
2021/08/12 06:00:46;;;;;;;;;;;;;;;-142.75;66.27;76735.66;5070845;28;19920;-75
2021/08/12 06:03:12;;;;;;;;;;;;;;;-142.75;66.20;76700.22;5083944;28;19921;-76
2021/08/12 06:05:37;;;;;;;;;;;;;;;-142.75;66.38;76731.72;5069863;28;19917;-76
2021/08/12 06:08:04;;;;;;;;;;;;;;;-142.75;66.51;76737.63;5071062;28;19932;-75
2021/08/12 06:10:29;;;;;;;;;;;;;;;-142.75;66.54;76735.66;5070816;28;19917;-76
2021/08/12 06:12:55;;;;;;;;;;;;;;;-142.75;66.21;76696.28;5077516;28;19923;-76
2021/08/12 06:15:21;;;;;;;;;;;;;;;-142.75;65.86;76658.88;5091677;28;19924;-75
2021/08/12 06:17:46;;;;;;;;;;;;;;;-142.75;64.81;76607.69;5080946;28;20003;-75
2021/08/12 06:20:11;;;;;;;;;;;;;;;-142.75;63.73;76542.72;5070551;28;19927;-76
2021/08/12 06:22:36;;;;;;;;;;;;;;;-142.75;61.68;76513.22;5069383;28;19925;-76
2021/08/12 06:25:01;;;;;;;;;;;;;;;-142.75;60.50;76475.81;5089109;28;19980;-76
2021/08/12 06:27:27;;;;;;;;;;;;;;;-142.75;59.18;76444.31;5078642;28;19916;-74
2021/08/12 06:29:52;;;;;;;;;;;;;;;-142.75;57.75;76371.47;5090609;28;20399;-76
2021/08/12 06:32:17;;;;;;;;;;;;;;;-142.75;56.73;76330.16;5075652;28;20407;-77
2021/08/12 06:34:42;;;;;;;;;;;;;;;-142.75;55.48;76275.03;5080918;28;19923;-77
2021/08/12 06:37:07;;;;;;;;;;;;;;;-142.75;53.89;76255.34;5083258;28;19916;-76
2021/08/12 06:39:33;;;;;;;;;;;;;;;-142.75;53.31;76225.81;5069236;28;20271;-77
2021/08/12 06:41:58;;;;;;;;;;;;;;;-142.75;52.25;76186.47;5085979;28;20011;-77
2021/08/12 06:44:23;;;;;;;;;;;;;;;-142.75;51.18;76158.91;5089628;28;19920;-77
2021/08/12 06:46:48;;;;;;;;;;;;;;;-142.75;50.38;76113.63;5090502;28;20274;-78
2021/08/12 06:49:13;;;;;;;;;;;;;;;-142.75;49.35;76060.50;5083076;28;19948;-78
2021/08/12 06:51:38;;;;;;;;;;;;;;;-142.75;48.64;76011.28;5068591;28;19917;-78
2021/08/12 06:54:04;;;;;;;;;;;;;;;-142.75;47.40;75936.50;5090051;28;20300;-77
2021/08/12 06:56:30;;;;;;;;;;;;;;;-142.75;45.30;75899.09;5077838;28;19916;-76
2021/08/12 06:58:55;;;;;;;;;;;;;;;-142.75;44.16;75828.25;5069310;28;19947;-76
2021/08/12 07:01:20;;;;;;;;;;;;;;;-142.75;43.36;75753.47;5078520;28;19922;-78
2021/08/12 07:03:46;;;;;;;;;;;;;;;-142.75;43.84;75739.69;5073480;28;19917;-77
2021/08/12 07:06:11;;;;;;;;;;;;;;;-142.75;42.30;75704.25;5071153;28;20022;-77
2021/08/12 07:08:37;;;;;;;;;;;;;;;-142.75;42.16;75639.31;5078682;28;20426;-76
2021/08/12 07:11:02;;;;;;;;;;;;;;;-142.75;40.38;75613.72;5080925;28;19920;-77
2021/08/12 07:13:27;;;;;;;;;;;;;;;-142.75;39.71;75566.50;5087927;28;19916;-78
2021/08/12 07:15:52;;;;;;;;;;;;;;;-142.75;39.45;75550.75;5078084;28;19916;-80
2021/08/12 07:18:17;;;;;;;;;;;;;;;-142.75;39.13;75511.41;5084765;28;19924;-78
2021/08/12 07:20:43;;;;;;;;;;;;;;;-142.75;38.30;75468.09;5086192;28;19916;-77
2021/08/12 07:23:08;;;;;;;;;;;;;;;-142.75;38.23;75452.34;5078708;28;20446;-76
2021/08/12 07:25:34;;;;;;;;;;;;;;;-142.75;37.87;75458.25;5086176;28;20293;-77
2021/08/12 07:27:59;;;;;;;;;;;;;;;-142.75;37.33;75432.69;5071567;28;20382;-78
2021/08/12 07:30:24;;;;;;;;;;;;;;;-142.75;37.60;75448.41;5069358;28;20528;-75
2021/08/12 07:32:50;;;;;;;;;;;;;;;-142.75;36.93;75416.94;5084845;28;21862;-75
2021/08/12 07:35:17;;;;;;;;;;;;;;;-142.75;36.10;75383.47;5080960;28;20427;-74
2021/08/12 07:37:43;;;;;;;;;;;;;;;-142.75;35.58;75389.38;5088535;28;19920;-73
2021/08/12 07:40:08;;;;;;;;;;;;;;;-142.75;35.71;75330.34;5090343;28;19916;-75
2021/08/12 07:42:33;;;;;;;;;;;;;;;-142.75;36.12;75348.06;5087184;28;20294;-74
2021/08/12 07:45:01;;;;;;;;;;;;;;;-142.75;35.08;75283.13;5077785;28;20309;-74
2021/08/12 07:47:26;;;;;;;;;;;;;;;-142.75;34.64;75247.69;5073602;28;19988;-73
2021/08/12 07:49:51;;;;;;;;;;;;;;;-142.75;33.98;75192.59;5076480;28;19917;-74
2021/08/12 07:52:16;;;;;;;;;;;;;;;-142.75;33.06;75107.97;5078661;28;19916;-76
2021/08/12 07:54:45;;;;;;;;;;;;;;;-142.75;32.12;75082.41;5075542;28;19956;-73
2021/08/12 07:57:11;;;;;;;;;;;;;;;-142.75;33.09;75212.28;5091275;28;19981;-74
2021/08/12 07:59:36;;;;;;;;;;;;;;;-142.75;33.33;75168.97;5072535;28;19917;-74
2021/08/12 08:02:01;;;;;;;;;;;;;;;-142.75;32.92;75086.34;5071089;28;19928;-74
2021/08/12 08:04:27;;;;;;;;;;;;;;;-142.75;31.93;75001.72;5072173;28;19916;-74
2021/08/12 08:06:52;;;;;;;;;;;;;;;-142.75;31.40;74985.97;5071272;28;19926;-75
2021/08/12 08:09:17;;;;;;;;;;;;;;;-142.75;31.56;74985.97;5075417;28;19999;-74
2021/08/12 08:11:42;;;;;;;;;;;;;;;-142.75;30.85;74952.53;5091148;28;20515;-76
2021/08/12 08:14:08;;;;;;;;;;;;;;;-142.75;30.87;74924.97;5076613;28;19917;-76
2021/08/12 08:16:33;;;;;;;;;;;;;;;-142.75;31.07;74883.66;5071209;28;20324;-75
2021/08/12 08:18:58;;;;;;;;;;;;;;;-142.75;31.92;74917.13;5091871;28;19966;-75
2021/08/12 08:21:23;;;;;;;;;;;;;;;-142.75;30.51;74889.56;5072530;28;19917;-74
2021/08/12 08:23:49;;;;;;;;;;;;;;;-142.75;30.17;74889.56;5081945;28;19916;-73
2021/08/12 08:26:14;;;;;;;;;;;;;;;-142.75;33.08;75086.34;5093015;28;19969;-75
2021/08/12 08:28:39;;;;;;;;;;;;;;;-142.75;31.53;74999.75;5081357;28;19915;-74
2021/08/12 08:31:04;;;;;;;;;;;;;;;-142.75;30.96;75035.19;5092132;28;19938;-74
2021/08/12 08:33:35;;;;;;;;;;;;;;;-142.75;31.74;75011.56;5086530;28;19962;-74
2021/08/12 08:36:00;;;;;;;;;;;;;;;-142.75;31.27;74952.53;5092028;28;20286;-75
2021/08/12 08:38:25;;;;;;;;;;;;;;;-142.75;30.04;74901.38;5090802;28;19916;-73
2021/08/12 08:40:51;;;;;;;;;;;;;;;-142.75;29.60;74865.97;5074252;28;20471;-74
2021/08/12 08:43:18;;;;;;;;;;;;;;;-142.75;29.11;74816.75;5092631;28;20335;-74
2021/08/12 08:45:43;;;;;;;;;;;;;;;-142.75;30.02;74944.66;5085383;28;19927;-73
2021/08/12 08:48:10;;;;;;;;;;;;;;;-142.75;30.54;74865.97;5072133;28;19916;-74
2021/08/12 08:50:37;;;;;;;;;;;;;;;-142.75;28.78;74720.34;5071349;28;20104;-74
2021/08/12 08:53:03;;;;;;;;;;;;;;;-142.75;29.39;74767.56;5084513;28;19924;-75
2021/08/12 08:55:28;;;;;;;;;;;;;;;-142.75;27.80;74743.97;5092471;28;19917;-74
2021/08/12 08:57:54;;;;;;;;;;;;;;;-142.75;28.04;74700.69;5093418;28;19916;-75
2021/08/12 09:00:20;;;;;;;;;;;;;;;-142.75;26.65;74724.28;5091745;28;19923;-74
2021/08/12 09:02:46;;;;;;;;;;;;;;;-142.75;27.81;74704.63;5091833;28;19950;-74
2021/08/12 09:05:13;;;;;;;;;;;;;;;-142.75;27.30;74749.88;5093001;28;20010;-74
2021/08/12 09:07:38;;;;;;;;;;;;;;;-142.75;27.46;74690.84;5074263;28;19916;-76
2021/08/12 09:10:03;;;;;;;;;;;;;;;-142.75;26.79;74616.06;5070895;28;19916;-76
2021/08/12 09:12:30;;;;;;;;;;;;;;;-142.75;27.39;74602.31;5071127;28;19916;-75
2021/08/12 09:15:03;;;;;;;;;;;;;;;-142.75;27.19;74724.28;5071170;28;20392;-74
2021/08/12 09:17:29;;;;;;;;;;;;;;;-142.75;26.94;74559.00;5071322;28;19917;-75
2021/08/12 09:19:58;;;;;;;;;;;;;;;-142.75;26.17;74507.88;5072401;28;19916;-74
2021/08/12 09:22:23;;;;;;;;;;;;;;;-142.75;25.90;74503.94;5072607;28;19924;-74
2021/08/12 09:24:49;;;;;;;;;;;;;;;-142.75;25.90;74537.38;5072910;28;19931;-74
2021/08/12 09:27:18;;;;;;;;;;;;;;;-142.75;26.55;74647.56;5072764;28;19924;-75
2021/08/12 09:29:43;;;;;;;;;;;;;;;-142.75;27.00;74539.34;5071406;28;19916;-75
2021/08/12 09:32:09;;;;;;;;;;;;;;;-142.75;26.62;74519.66;5072393;28;19923;-74
2021/08/12 09:34:45;;;;;;;;;;;;;;;-142.75;25.93;74496.06;5072209;28;20389;-74
2021/08/12 09:37:11;;;;;;;;;;;;;;;-142.75;25.54;74523.59;5084684;28;19920;-74
2021/08/12 09:39:37;;;;;;;;;;;;;;;-142.75;26.42;74545.25;5091247;28;19916;-74
2021/08/12 09:42:03;;;;;;;;;;;;;;;-142.75;27.11;74679.03;5092201;28;19971;-75
2021/08/12 09:44:42;;;;;;;;;;;;;;;-142.75;27.70;74621.97;5092171;28;19916;-75
2021/08/12 09:47:09;;;;;;;;;;;;;;;-142.75;27.04;74598.38;5092634;28;19920;-75
2021/08/12 09:49:35;;;;;;;;;;;;;;;-142.75;26.58;74562.94;5085102;28;20389;-74
2021/08/12 09:52:14;;;;;;;;;;;;;;;-142.75;26.55;74545.25;5072446;28;20444;-74
2021/08/12 09:54:39;;;;;;;;;;;;;;;-142.75;25.87;74492.13;5073767;28;20075;-75
2021/08/12 09:57:25;;;;;;;;;;;;;;;-142.75;26.13;74519.66;5092197;28;19995;-74
2021/08/12 09:59:51;;;;;;;;;;;;;;;-142.75;26.95;74535.41;5092407;28;19927;-75
2021/08/12 10:02:16;;;;;;;;;;;;;;;-142.75;26.33;74517.69;5091905;28;19981;-76
2021/08/12 10:04:42;;;;;;;;;;;;;;;-142.75;26.91;74494.09;5092525;28;20014;-75
2021/08/12 10:07:08;;;;;;;;;;;;;;;-142.75;26.57;74462.59;5087075;28;19986;-75
2021/08/12 10:09:42;;;;;;;;;;;;;;;-142.75;26.10;74450.81;5078123;28;19916;-77
2021/08/12 10:12:08;;;;;;;;;;;;;;;-142.75;27.29;74476.38;5082733;28;19969;-78
2021/08/12 10:14:33;;;;;;;;;;;;;;;-142.75;25.89;74454.75;5082107;28;19916;-78
2021/08/12 10:16:58;;;;;;;;;;;;;;;-142.75;26.64;74673.13;5077171;28;19916;-76
2021/08/12 10:19:24;;;;;;;;;;;;;;;-142.75;26.53;74496.06;5088360;28;19916;-78
2021/08/12 10:21:49;;;;;;;;;;;;;;;-142.75;28.69;74732.16;5072034;28;19920;-77
2021/08/12 10:24:15;;;;;;;;;;;;;;;-142.75;27.38;74629.84;5077031;28;19931;-77
2021/08/12 10:26:44;;;;;;;;;;;;;;;-142.75;27.91;74612.13;5077505;28;20011;-78
2021/08/12 10:29:13;;;;;;;;;;;;;;;-142.75;27.61;74539.34;5072871;28;19939;-77
2021/08/12 10:31:42;;;;;;;;;;;;;;;-142.75;27.35;74488.19;5083588;28;19931;-79
2021/08/12 10:34:07;;;;;;;;;;;;;;;-142.75;27.42;74535.41;5093646;28;19916;-78
2021/08/12 10:36:33;;;;;;;;;;;;;;;-142.75;27.29;74517.69;5083428;28;20455;-78
2021/08/12 10:38:58;;;;;;;;;;;;;;;-142.75;27.33;74444.91;5083792;28;19916;-77
2021/08/12 10:41:25;;;;;;;;;;;;;;;-142.75;27.19;74415.38;5097216;28;19923;-80
2021/08/12 10:43:55;;;;;;;;;;;;;;;-142.75;26.84;74397.69;5085315;28;19966;-78
2021/08/12 10:46:30;;;;;;;;;;;;;;;-142.75;26.66;74387.84;5092407;28;20445;-79
2021/08/12 10:49:15;;;;;;;;;;;;;;;-142.75;28.14;74734.13;5095554;28;19963;-78
2021/08/12 10:51:44;;;;;;;;;;;;;;;-142.75;28.85;74692.81;5093183;28;20378;-78
2021/08/12 10:54:17;;;;;;;;;;;;;;;-142.75;28.42;74655.44;5075685;28;19920;-78
2021/08/12 10:56:43;;;;;;;;;;;;;;;-142.75;28.75;74708.53;5081761;28;20020;-78
2021/08/12 10:59:08;;;;;;;;;;;;;;;-142.75;28.86;74740.03;5083265;28;20014;-77
2021/08/12 11:01:35;;;;;;;;;;;;;;;-142.75;30.43;74830.53;5087233;28;19998;-78
2021/08/12 11:04:03;;;;;;;;;;;;;;;-142.75;30.75;74865.97;5089388;28;19916;-77
2021/08/12 11:06:36;;;;;;;;;;;;;;;-142.75;31.48;74944.66;5089672;28;19924;-78
2021/08/12 11:09:02;;;;;;;;;;;;;;;-142.75;31.61;74932.84;5076186;28;20289;-77
2021/08/12 11:11:27;;;;;;;;;;;;;;;-142.75;31.77;74838.41;5094226;28;19920;-77
2021/08/12 11:13:54;;;;;;;;;;;;;;;-142.75;30.72;74775.44;5093162;22;20405;-77
2021/08/12 11:16:20;;;;;;;;;;;;;;;-142.75;29.80;74614.09;5084063;28;19920;-77
2021/08/12 11:18:45;;;;;;;;;;;;;;;-142.75;29.63;74600.34;5077435;28;19916;-77
2021/08/12 11:21:29;;;;;;;;;;;;;;;-142.75;29.03;74560.97;5070429;28;19939;-77
2021/08/12 11:23:55;;;;;;;;;;;;;;;-142.75;29.55;74637.72;5057706;28;19924;-79
2021/08/12 11:26:20;;;;;;;;;;;;;;;-142.75;29.71;74718.38;5061044;28;19974;-78
2021/08/12 11:28:45;;;;;;;;;;;;;;;-142.75;31.09;74745.94;5066831;28;19916;-75
2021/08/12 11:31:19;;;;;;;;;;;;;;;-142.75;29.54;74653.47;5070666;28;20018;-76
2021/08/12 11:33:46;;;;;;;;;;;;;;;-142.75;29.53;74614.09;5069648;28;20335;-79
2021/08/12 11:36:16;;;;;;;;;;;;;;;-142.75;29.22;74570.81;5060666;28;20003;-78
2021/08/12 11:38:53;;;;;;;;;;;;;;;-142.75;28.59;74555.09;5052453;28;19975;-77
2021/08/12 11:41:19;;;;;;;;;;;;;;;-142.75;28.26;74631.81;5070177;28;19924;-78
2021/08/12 11:43:44;;;;;;;;;;;;;;;-142.75;30.46;74720.34;5066147;28;19974;-78
2021/08/12 11:46:10;;;;;;;;;;;;;;;-142.75;30.21;74787.25;5070224;28;21301;-77
2021/08/12 11:48:35;;;;;;;;;;;;;;;-142.75;32.73;75119.78;5068283;28;20298;-77
2021/08/12 11:51:01;;;;;;;;;;;;;;;-142.75;32.15;74972.22;5070581;28;20007;-77
2021/08/12 11:53:35;;;;;;;;;;;;;;;-142.75;31.10;74850.22;5053671;28;19917;-77
2021/08/12 11:56:06;;;;;;;;;;;;;;;-142.75;31.90;74960.41;5050864;28;19928;-79
2021/08/12 11:58:31;;;;;;;;;;;;;;;-142.75;32.50;75005.66;5050326;28;20011;-77
2021/08/12 12:01:08;;;;;;;;;;;;;;;-142.75;32.32;74978.13;5053771;28;20016;-78
2021/08/12 12:03:33;;;;;;;;;;;;;;;-142.75;32.96;75050.91;5050686;28;19964;-77
2021/08/12 12:05:58;;;;;;;;;;;;;;;-142.75;33.60;75109.94;5057741;28;19960;-76
2021/08/12 12:08:27;;;;;;;;;;;;;;;-142.75;33.73;75149.31;5050736;28;19931;-76
2021/08/12 12:10:52;;;;;;;;;;;;;;;-142.75;34.01;75172.91;5064417;28;19938;-77
2021/08/12 12:13:18;;;;;;;;;;;;;;;-142.75;34.15;75178.81;5065511;28;19917;-77
2021/08/12 12:15:47;;;;;;;;;;;;;;;-142.75;35.35;75371.66;5050545;28;19925;-80
2021/08/12 12:18:15;;;;;;;;;;;;;;;-142.75;36.09;75320.50;5051983;28;19917;-78
2021/08/12 12:20:41;;;;;;;;;;;;;;;-142.75;36.09;75285.09;5066933;28;19920;-77
2021/08/12 12:23:07;;;;;;;;;;;;;;;-142.75;36.42;75387.41;5051851;28;20284;-77